Time,TemperatureF,DewpointF,PressureIn,WindDirection,WindDirectionDegrees,WindSpeedMPH,WindSpeedGustMPH,Humidity,HourlyPrecipIn,Conditions,Clouds,dailyrainin,SoftwareType,DateUTC
2013-05-10 00:02:00,42.0,36.0,-100.00,NE,40,3.0,9.0,82,0.00,,,-99.99,,2013-05-10 05:02:00,
2013-05-10 00:12:00,42.0,36.0,-100.00,NE,40,3.0,9.0,82,0.00,,,-99.99,,2013-05-10 05:12:00,
2013-05-10 00:22:00,42.0,36.0,-100.00,NE,40,3.0,9.0,82,0.00,,,-99.99,,2013-05-10 05:22:00,
2013-05-10 00:32:00,42.0,36.0,-100.00,NE,40,3.0,9.0,82,0.00,,,-99.99,,2013-05-10 05:32:00,
2013-05-10 02:12:00,40.0,35.0,-100.00,NNE,30,4.0,9.0,82,0.00,,,-99.99,,2013-05-10 07:12:00,
2013-05-10 02:22:00,40.0,35.0,-100.00,NNE,30,4.0,9.0,82,0.00,,,-99.99,,2013-05-10 07:22:00,
2013-05-10 02:31:00,40.0,35.0,-100.00,NNE,30,4.0,9.0,82,0.00,,,-99.99,,2013-05-10 07:31:00,
2013-05-10 02:42:00,40.0,35.0,-100.00,NNE,30,4.0,9.0,82,0.00,,,-99.99,,2013-05-10 07:42:00,
2013-05-10 05:12:00,38.0,31.0,-100.00,NE,35,5.0,12.0,76,0.00,,,-99.99,,2013-05-10 10:12:00,
2013-05-10 05:23:00,38.0,31.0,-100.00,NE,35,5.0,12.0,76,0.00,,,-99.99,,2013-05-10 10:23:00,
2013-05-10 05:32:00,38.0,31.0,-100.00,NE,35,5.0,12.0,76,0.00,,,-99.99,,2013-05-10 10:32:00,
2013-05-10 05:42:00,38.0,31.0,-100.00,NE,35,5.0,12.0,76,0.00,,,-99.99,,2013-05-10 10:42:00,
2013-05-10 08:11:00,40.0,28.0,-100.00,North,0,6.0,11.0,62,0.00,,,-99.99,,2013-05-10 13:11:00,
2013-05-10 08:21:00,40.0,28.0,-100.00,North,0,6.0,11.0,62,0.00,,,-99.99,,2013-05-10 13:21:00,
2013-05-10 08:32:00,40.0,28.0,-100.00,North,0,6.0,11.0,62,0.00,,,-99.99,,2013-05-10 13:32:00,
2013-05-10 08:41:00,40.0,28.0,-100.00,North,0,6.0,11.0,62,0.00,,,-99.99,,2013-05-10 13:41:00,
2013-05-10 09:02:00,42.0,28.0,-100.00,North,10,4.0,9.0,58,0.00,,,-99.99,,2013-05-10 14:02:00,
2013-05-10 09:11:00,42.0,28.0,-100.00,North,10,4.0,9.0,58,0.00,,,-99.99,,2013-05-10 14:11:00,
2013-05-10 09:21:00,42.0,28.0,-100.00,North,10,4.0,9.0,58,0.00,,,-99.99,,2013-05-10 14:21:00,
2013-05-10 09:32:00,42.0,28.0,-100.00,North,10,4.0,9.0,58,0.00,,,-99.99,,2013-05-10 14:32:00,
2013-05-10 09:41:00,42.0,28.0,-100.00,North,10,4.0,9.0,58,0.00,,,-99.99,,2013-05-10 14:41:00,
2013-05-10 11:12:00,50.0,30.0,-100.00,North,0,4.0,10.0,46,0.00,,,-99.99,,2013-05-10 16:12:00,
2013-05-10 11:23:00,50.0,30.0,-100.00,North,0,4.0,10.0,46,0.00,,,-99.99,,2013-05-10 16:23:00,
2013-05-10 11:32:00,50.0,30.0,-100.00,North,0,4.0,10.0,46,0.00,,,-99.99,,2013-05-10 16:32:00,
2013-05-10 11:42:00,50.0,30.0,-100.00,North,0,4.0,10.0,46,0.00,,,-99.99,,2013-05-10 16:42:00,
2013-05-10 12:12:00,56.0,28.0,-100.00,NNE,20,2.0,9.0,34,0.00,,,-99.99,,2013-05-10 17:12:00,
2013-05-10 12:22:00,56.0,28.0,-100.00,NNE,20,2.0,9.0,34,0.00,,,-99.99,,2013-05-10 17:22:00,
2013-05-10 12:32:00,56.0,28.0,-100.00,NNE,20,2.0,9.0,34,0.00,,,-99.99,,2013-05-10 17:32:00,
2013-05-10 12:42:00,56.0,28.0,-100.00,NNE,20,2.0,9.0,34,0.00,,,-99.99,,2013-05-10 17:42:00,
2013-05-10 13:12:00,59.0,28.0,-100.00,WNW,300,3.0,7.0,30,0.00,,,-99.99,,2013-05-10 18:12:00,
2013-05-10 13:22:00,59.0,28.0,-100.00,WNW,300,3.0,7.0,30,0.00,,,-99.99,,2013-05-10 18:22:00,
2013-05-10 13:34:00,59.0,28.0,-100.00,WNW,300,3.0,7.0,30,0.00,,,-99.99,,2013-05-10 18:34:00,
2013-05-10 13:43:00,59.0,28.0,-100.00,WNW,300,3.0,7.0,30,0.00,,,-99.99,,2013-05-10 18:43:00,
2013-05-10 14:11:00,61.0,26.0,-100.00,West,260,4.0,7.0,26,0.00,,,-99.99,,2013-05-10 19:11:00,
2013-05-10 14:21:00,61.0,26.0,-100.00,West,260,4.0,7.0,26,0.00,,,-99.99,,2013-05-10 19:21:00,
2013-05-10 14:32:00,61.0,26.0,-100.00,West,260,4.0,7.0,26,0.00,,,-99.99,,2013-05-10 19:32:00,
2013-05-10 14:42:00,61.0,26.0,-100.00,West,260,4.0,7.0,26,0.00,,,-99.99,,2013-05-10 19:42:00,
2013-05-10 15:12:00,64.0,23.0,-100.00,NW,325,2.0,8.0,21,0.00,,,-99.99,,2013-05-10 20:12:00,
2013-05-10 15:21:00,64.0,23.0,-100.00,NW,325,2.0,8.0,21,0.00,,,-99.99,,2013-05-10 20:21:00,
2013-05-10 15:32:00,64.0,23.0,-100.00,NW,325,2.0,8.0,21,0.00,,,-99.99,,2013-05-10 20:32:00,
2013-05-10 15:41:00,64.0,23.0,-100.00,NW,325,2.0,8.0,21,0.00,,,-99.99,,2013-05-10 20:41:00,
2013-05-10 16:11:00,65.0,17.0,-100.00,North,0,6.0,12.0,16,0.00,,,-99.99,,2013-05-10 21:11:00,
2013-05-10 16:25:00,65.0,17.0,-100.00,North,0,6.0,12.0,16,0.00,,,-99.99,,2013-05-10 21:25:00,
2013-05-10 16:32:00,65.0,17.0,-100.00,North,0,6.0,12.0,16,0.00,,,-99.99,,2013-05-10 21:32:00,
2013-05-10 16:43:00,65.0,17.0,-100.00,North,0,6.0,12.0,16,0.00,,,-99.99,,2013-05-10 21:43:00,
2013-05-10 17:22:00,65.0,18.0,-100.00,WSW,250,3.0,6.0,16,0.00,,,-99.99,,2013-05-10 22:22:00,
2013-05-10 17:32:00,65.0,18.0,-100.00,WSW,250,3.0,6.0,16,0.00,,,-99.99,,2013-05-10 22:32:00,
2013-05-10 17:42:00,65.0,18.0,-100.00,WSW,250,3.0,6.0,16,0.00,,,-99.99,,2013-05-10 22:42:00,
2013-05-10 19:11:00,61.0,13.0,-100.00,WNW,300,4.0,9.0,15,0.00,,,-99.99,,2013-05-11 00:11:00,
2013-05-10 19:21:00,61.0,13.0,-100.00,WNW,300,4.0,9.0,15,0.00,,,-99.99,,2013-05-11 00:21:00,
2013-05-10 19:32:00,61.0,13.0,-100.00,WNW,300,4.0,9.0,15,0.00,,,-99.99,,2013-05-11 00:32:00,
2013-05-10 19:42:00,61.0,13.0,-100.00,WNW,300,4.0,9.0,15,0.00,,,-99.99,,2013-05-11 00:42:00,
2013-05-10 20:11:00,56.0,19.0,-100.00,West,280,1.0,5.0,23,0.00,,,-99.99,,2013-05-11 01:11:00,
2013-05-10 20:21:00,56.0,19.0,-100.00,West,280,1.0,5.0,23,0.00,,,-99.99,,2013-05-11 01:21:00,
2013-05-10 20:32:00,56.0,19.0,-100.00,West,280,1.0,5.0,23,0.00,,,-99.99,,2013-05-11 01:32:00,
2013-05-10 20:42:00,56.0,19.0,-100.00,West,280,1.0,5.0,23,0.00,,,-99.99,,2013-05-11 01:42:00,
2013-05-10 22:11:00,46.0,28.0,-100.00,SSE,150,0.0,1.0,49,0.00,,,-99.99,,2013-05-11 03:11:00,
2013-05-10 22:21:00,46.0,28.0,-100.00,SSE,150,0.0,1.0,49,0.00,,,-99.99,,2013-05-11 03:21:00,
2013-05-10 22:33:00,46.0,28.0,-100.00,SSE,150,0.0,1.0,49,0.00,,,-99.99,,2013-05-11 03:33:00,
2013-05-10 22:42:00,46.0,28.0,-100.00,SSE,150,0.0,1.0,49,0.00,,,-99.99,,2013-05-11 03:42:00,